sensor_id;sensor_type;location;lat;lon;timestamp;P1;durP1;ratioP1;P2;durP2;ratioP2
2522;SDS011;1272;53.332;9.860;2023-12-20T00:01:22;3.30;;;1.77;;
2522;SDS011;1272;53.332;9.860;2023-12-20T00:03:48;8.13;;;1.67;;
2522;SDS011;1272;53.332;9.860;2023-12-20T00:06:13;3.07;;;1.70;;
2522;SDS011;1272;53.332;9.860;2023-12-20T00:08:39;1.70;;;1.53;;
2522;SDS011;1272;53.332;9.860;2023-12-20T00:11:05;1.93;;;1.63;;
2522;SDS011;1272;53.332;9.860;2023-12-20T00:13:30;2.40;;;1.57;;
2522;SDS011;1272;53.332;9.860;2023-12-20T00:15:56;3.63;;;1.53;;
2522;SDS011;1272;53.332;9.860;2023-12-20T00:18:22;5.93;;;1.83;;
2522;SDS011;1272;53.332;9.860;2023-12-20T00:20:48;1.77;;;1.13;;
2522;SDS011;1272;53.332;9.860;2023-12-20T00:23:13;1.60;;;1.50;;
2522;SDS011;1272;53.332;9.860;2023-12-20T00:25:39;2.23;;;1.50;;
2522;SDS011;1272;53.332;9.860;2023-12-20T00:28:05;1.63;;;1.40;;
2522;SDS011;1272;53.332;9.860;2023-12-20T00:30:31;2.90;;;1.20;;
2522;SDS011;1272;53.332;9.860;2023-12-20T00:32:57;3.20;;;1.03;;
2522;SDS011;1272;53.332;9.860;2023-12-20T00:35:23;2.60;;;1.20;;
2522;SDS011;1272;53.332;9.860;2023-12-20T00:37:49;2.60;;;1.10;;
2522;SDS011;1272;53.332;9.860;2023-12-20T00:40:15;1.60;;;1.50;;
2522;SDS011;1272;53.332;9.860;2023-12-20T00:42:41;3.13;;;1.27;;
2522;SDS011;1272;53.332;9.860;2023-12-20T00:45:07;5.70;;;1.37;;
2522;SDS011;1272;53.332;9.860;2023-12-20T00:47:33;5.80;;;1.43;;
2522;SDS011;1272;53.332;9.860;2023-12-20T00:49:58;2.50;;;1.27;;
2522;SDS011;1272;53.332;9.860;2023-12-20T00:52:24;3.20;;;1.37;;
2522;SDS011;1272;53.332;9.860;2023-12-20T00:54:50;1.63;;;1.20;;
2522;SDS011;1272;53.332;9.860;2023-12-20T00:57:16;0.90;;;0.90;;
2522;SDS011;1272;53.332;9.860;2023-12-20T00:59:41;4.47;;;1.33;;
2522;SDS011;1272;53.332;9.860;2023-12-20T01:02:07;1.93;;;1.10;;
2522;SDS011;1272;53.332;9.860;2023-12-20T01:04:34;1.77;;;1.20;;
2522;SDS011;1272;53.332;9.860;2023-12-20T01:06:59;1.20;;;1.10;;
2522;SDS011;1272;53.332;9.860;2023-12-20T01:09:25;6.00;;;1.30;;
2522;SDS011;1272;53.332;9.860;2023-12-20T01:11:52;3.40;;;1.50;;
2522;SDS011;1272;53.332;9.860;2023-12-20T01:14:18;3.07;;;1.57;;
2522;SDS011;1272;53.332;9.860;2023-12-20T01:16:44;7.93;;;1.83;;
2522;SDS011;1272;53.332;9.860;2023-12-20T01:19:10;4.43;;;1.30;;
2522;SDS011;1272;53.332;9.860;2023-12-20T01:21:39;8.33;;;1.40;;
2522;SDS011;1272;53.332;9.860;2023-12-20T01:24:05;3.33;;;1.70;;
2522;SDS011;1272;53.332;9.860;2023-12-20T01:26:31;1.23;;;1.10;;
2522;SDS011;1272;53.332;9.860;2023-12-20T01:28:57;3.30;;;1.00;;
2522;SDS011;1272;53.332;9.860;2023-12-20T01:31:22;6.47;;;1.33;;
2522;SDS011;1272;53.332;9.860;2023-12-20T01:33:48;1.80;;;1.37;;
2522;SDS011;1272;53.332;9.860;2023-12-20T01:36:14;6.60;;;2.50;;
2522;SDS011;1272;53.332;9.860;2023-12-20T01:38:39;1.57;;;1.20;;
2522;SDS011;1272;53.332;9.860;2023-12-20T01:41:05;2.40;;;1.70;;
2522;SDS011;1272;53.332;9.860;2023-12-20T01:43:31;3.40;;;1.13;;
2522;SDS011;1272;53.332;9.860;2023-12-20T01:45:57;6.03;;;2.73;;
2522;SDS011;1272;53.332;9.860;2023-12-20T01:48:23;5.73;;;1.40;;
2522;SDS011;1272;53.332;9.860;2023-12-20T01:50:50;2.40;;;1.30;;
2522;SDS011;1272;53.332;9.860;2023-12-20T01:53:16;2.07;;;1.90;;
2522;SDS011;1272;53.332;9.860;2023-12-20T01:55:43;5.53;;;1.70;;
2522;SDS011;1272;53.332;9.860;2023-12-20T01:58:10;4.07;;;1.40;;
2522;SDS011;1272;53.332;9.860;2023-12-20T02:00:37;1.97;;;1.70;;
2522;SDS011;1272;53.332;9.860;2023-12-20T02:03:03;5.23;;;1.57;;
2522;SDS011;1272;53.332;9.860;2023-12-20T02:05:32;6.10;;;2.17;;
2522;SDS011;1272;53.332;9.860;2023-12-20T02:07:59;5.10;;;2.00;;
2522;SDS011;1272;53.332;9.860;2023-12-20T02:10:25;7.90;;;1.80;;
2522;SDS011;1272;53.332;9.860;2023-12-20T02:12:51;3.47;;;1.10;;
2522;SDS011;1272;53.332;9.860;2023-12-20T02:15:17;4.27;;;1.97;;
2522;SDS011;1272;53.332;9.860;2023-12-20T02:17:43;5.83;;;2.13;;
2522;SDS011;1272;53.332;9.860;2023-12-20T02:20:10;4.57;;;1.50;;
2522;SDS011;1272;53.332;9.860;2023-12-20T02:22:36;2.03;;;1.50;;
2522;SDS011;1272;53.332;9.860;2023-12-20T02:25:01;5.73;;;1.60;;
2522;SDS011;1272;53.332;9.860;2023-12-20T02:27:27;9.20;;;2.30;;
2522;SDS011;1272;53.332;9.860;2023-12-20T02:29:56;5.57;;;1.90;;
2522;SDS011;1272;53.332;9.860;2023-12-20T02:32:22;2.90;;;1.73;;
2522;SDS011;1272;53.332;9.860;2023-12-20T02:34:53;7.53;;;1.80;;
2522;SDS011;1272;53.332;9.860;2023-12-20T02:37:19;3.20;;;1.40;;
2522;SDS011;1272;53.332;9.860;2023-12-20T02:39:45;3.20;;;1.77;;
2522;SDS011;1272;53.332;9.860;2023-12-20T02:42:11;5.20;;;1.47;;
2522;SDS011;1272;53.332;9.860;2023-12-20T02:44:39;4.53;;;1.67;;
2522;SDS011;1272;53.332;9.860;2023-12-20T02:47:05;1.67;;;1.57;;
2522;SDS011;1272;53.332;9.860;2023-12-20T02:49:30;2.53;;;1.87;;
2522;SDS011;1272;53.332;9.860;2023-12-20T02:51:56;7.47;;;1.63;;
2522;SDS011;1272;53.332;9.860;2023-12-20T02:54:22;5.37;;;2.40;;
2522;SDS011;1272;53.332;9.860;2023-12-20T02:56:47;2.77;;;1.60;;
2522;SDS011;1272;53.332;9.860;2023-12-20T02:59:13;4.20;;;1.77;;
2522;SDS011;1272;53.332;9.860;2023-12-20T03:01:44;4.00;;;1.80;;
2522;SDS011;1272;53.332;9.860;2023-12-20T03:04:10;5.23;;;1.60;;
2522;SDS011;1272;53.332;9.860;2023-12-20T03:06:36;3.00;;;1.30;;
2522;SDS011;1272;53.332;9.860;2023-12-20T03:09:02;2.43;;;1.93;;
2522;SDS011;1272;53.332;9.860;2023-12-20T03:11:28;5.07;;;1.60;;
2522;SDS011;1272;53.332;9.860;2023-12-20T03:13:54;2.40;;;2.30;;
2522;SDS011;1272;53.332;9.860;2023-12-20T03:16:20;5.93;;;2.33;;
2522;SDS011;1272;53.332;9.860;2023-12-20T03:18:46;8.37;;;2.97;;
2522;SDS011;1272;53.332;9.860;2023-12-20T03:21:12;3.40;;;2.30;;
2522;SDS011;1272;53.332;9.860;2023-12-20T03:23:37;9.47;;;1.97;;
2522;SDS011;1272;53.332;9.860;2023-12-20T03:26:03;8.43;;;2.20;;
2522;SDS011;1272;53.332;9.860;2023-12-20T03:28:35;1.50;;;1.40;;
2522;SDS011;1272;53.332;9.860;2023-12-20T03:31:01;10.67;;;2.97;;
2522;SDS011;1272;53.332;9.860;2023-12-20T03:33:27;2.70;;;1.40;;
2522;SDS011;1272;53.332;9.860;2023-12-20T03:35:54;4.27;;;1.70;;
2522;SDS011;1272;53.332;9.860;2023-12-20T03:38:20;3.57;;;1.33;;
2522;SDS011;1272;53.332;9.860;2023-12-20T03:40:46;3.63;;;1.60;;
2522;SDS011;1272;53.332;9.860;2023-12-20T03:43:12;5.33;;;1.33;;
2522;SDS011;1272;53.332;9.860;2023-12-20T03:45:37;5.63;;;1.47;;
2522;SDS011;1272;53.332;9.860;2023-12-20T03:48:03;10.30;;;3.10;;
2522;SDS011;1272;53.332;9.860;2023-12-20T03:50:29;9.90;;;1.60;;
2522;SDS011;1272;53.332;9.860;2023-12-20T03:52:55;4.53;;;1.20;;
2522;SDS011;1272;53.332;9.860;2023-12-20T03:55:21;4.97;;;1.70;;
2522;SDS011;1272;53.332;9.860;2023-12-20T03:57:46;4.70;;;1.67;;
2522;SDS011;1272;53.332;9.860;2023-12-20T04:00:12;9.40;;;2.10;;
2522;SDS011;1272;53.332;9.860;2023-12-20T04:02:38;8.07;;;1.90;;
2522;SDS011;1272;53.332;9.860;2023-12-20T04:05:05;7.47;;;1.87;;
2522;SDS011;1272;53.332;9.860;2023-12-20T04:07:31;5.33;;;1.83;;
2522;SDS011;1272;53.332;9.860;2023-12-20T04:09:57;2.57;;;1.77;;
2522;SDS011;1272;53.332;9.860;2023-12-20T04:12:23;2.47;;;1.63;;
2522;SDS011;1272;53.332;9.860;2023-12-20T04:14:48;7.43;;;2.30;;
2522;SDS011;1272;53.332;9.860;2023-12-20T04:17:15;8.83;;;1.87;;
2522;SDS011;1272;53.332;9.860;2023-12-20T04:19:41;3.77;;;1.80;;
2522;SDS011;1272;53.332;9.860;2023-12-20T04:22:07;4.30;;;2.40;;
2522;SDS011;1272;53.332;9.860;2023-12-20T04:24:33;3.60;;;2.10;;
2522;SDS011;1272;53.332;9.860;2023-12-20T04:26:59;3.40;;;2.13;;
2522;SDS011;1272;53.332;9.860;2023-12-20T04:29:25;8.60;;;2.47;;
2522;SDS011;1272;53.332;9.860;2023-12-20T04:31:50;10.33;;;2.43;;
2522;SDS011;1272;53.332;9.860;2023-12-20T04:34:16;8.93;;;3.10;;
2522;SDS011;1272;53.332;9.860;2023-12-20T04:36:42;4.73;;;2.80;;
2522;SDS011;1272;53.332;9.860;2023-12-20T04:39:08;5.60;;;2.30;;
2522;SDS011;1272;53.332;9.860;2023-12-20T04:41:34;6.50;;;2.20;;
2522;SDS011;1272;53.332;9.860;2023-12-20T04:44:00;4.30;;;3.50;;
2522;SDS011;1272;53.332;9.860;2023-12-20T04:46:26;4.23;;;2.50;;
2522;SDS011;1272;53.332;9.860;2023-12-20T04:48:52;15.13;;;3.20;;
2522;SDS011;1272;53.332;9.860;2023-12-20T04:51:17;5.60;;;2.77;;
2522;SDS011;1272;53.332;9.860;2023-12-20T04:53:43;3.53;;;2.53;;
2522;SDS011;1272;53.332;9.860;2023-12-20T04:56:09;4.63;;;3.47;;
2522;SDS011;1272;53.332;9.860;2023-12-20T04:58:34;7.20;;;3.07;;
2522;SDS011;1272;53.332;9.860;2023-12-20T05:01:00;4.50;;;3.20;;
2522;SDS011;1272;53.332;9.860;2023-12-20T05:03:26;8.93;;;2.93;;
2522;SDS011;1272;53.332;9.860;2023-12-20T05:05:51;10.10;;;4.30;;
2522;SDS011;1272;53.332;9.860;2023-12-20T05:08:17;5.63;;;3.67;;
2522;SDS011;1272;53.332;9.860;2023-12-20T05:10:43;6.00;;;3.67;;
2522;SDS011;1272;53.332;9.860;2023-12-20T05:13:08;6.77;;;3.40;;
2522;SDS011;1272;53.332;9.860;2023-12-20T05:15:34;4.30;;;3.80;;
2522;SDS011;1272;53.332;9.860;2023-12-20T05:18:00;10.80;;;3.60;;
2522;SDS011;1272;53.332;9.860;2023-12-20T05:20:26;7.33;;;4.70;;
2522;SDS011;1272;53.332;9.860;2023-12-20T05:22:51;24.83;;;4.87;;
2522;SDS011;1272;53.332;9.860;2023-12-20T05:25:17;11.10;;;4.50;;
2522;SDS011;1272;53.332;9.860;2023-12-20T05:27:43;7.03;;;3.87;;
2522;SDS011;1272;53.332;9.860;2023-12-20T05:30:08;6.20;;;3.93;;
2522;SDS011;1272;53.332;9.860;2023-12-20T05:32:34;5.63;;;3.90;;
2522;SDS011;1272;53.332;9.860;2023-12-20T05:35:00;3.23;;;2.93;;
2522;SDS011;1272;53.332;9.860;2023-12-20T05:37:26;12.03;;;4.30;;
2522;SDS011;1272;53.332;9.860;2023-12-20T05:39:52;6.47;;;4.87;;
2522;SDS011;1272;53.332;9.860;2023-12-20T05:42:17;7.77;;;4.50;;
2522;SDS011;1272;53.332;9.860;2023-12-20T05:44:43;3.40;;;3.10;;
2522;SDS011;1272;53.332;9.860;2023-12-20T05:47:09;8.20;;;3.70;;
2522;SDS011;1272;53.332;9.860;2023-12-20T05:49:34;8.67;;;4.27;;
2522;SDS011;1272;53.332;9.860;2023-12-20T05:52:00;6.00;;;3.60;;
2522;SDS011;1272;53.332;9.860;2023-12-20T05:54:26;6.20;;;4.07;;
2522;SDS011;1272;53.332;9.860;2023-12-20T05:56:51;7.47;;;3.20;;
2522;SDS011;1272;53.332;9.860;2023-12-20T05:59:17;5.30;;;3.30;;
2522;SDS011;1272;53.332;9.860;2023-12-20T06:01:42;6.17;;;3.20;;
2522;SDS011;1272;53.332;9.860;2023-12-20T06:04:08;12.73;;;4.50;;
2522;SDS011;1272;53.332;9.860;2023-12-20T06:06:34;4.73;;;3.70;;
2522;SDS011;1272;53.332;9.860;2023-12-20T06:09:05;5.73;;;3.10;;
2522;SDS011;1272;53.332;9.860;2023-12-20T06:11:31;7.53;;;3.67;;
2522;SDS011;1272;53.332;9.860;2023-12-20T06:13:56;3.73;;;3.43;;
2522;SDS011;1272;53.332;9.860;2023-12-20T06:16:22;13.37;;;4.57;;
2522;SDS011;1272;53.332;9.860;2023-12-20T06:18:47;11.37;;;4.00;;
2522;SDS011;1272;53.332;9.860;2023-12-20T06:21:13;6.43;;;3.60;;
2522;SDS011;1272;53.332;9.860;2023-12-20T06:23:39;9.63;;;3.40;;
2522;SDS011;1272;53.332;9.860;2023-12-20T06:26:05;6.93;;;3.50;;
2522;SDS011;1272;53.332;9.860;2023-12-20T06:28:31;6.87;;;3.80;;
2522;SDS011;1272;53.332;9.860;2023-12-20T06:30:56;10.70;;;3.60;;
2522;SDS011;1272;53.332;9.860;2023-12-20T06:33:22;4.10;;;2.80;;
2522;SDS011;1272;53.332;9.860;2023-12-20T06:35:49;8.37;;;4.63;;
2522;SDS011;1272;53.332;9.860;2023-12-20T06:38:15;9.13;;;4.17;;
2522;SDS011;1272;53.332;9.860;2023-12-20T06:40:41;4.33;;;3.87;;
2522;SDS011;1272;53.332;9.860;2023-12-20T06:43:07;7.20;;;4.20;;
2522;SDS011;1272;53.332;9.860;2023-12-20T06:45:33;13.73;;;4.33;;
2522;SDS011;1272;53.332;9.860;2023-12-20T06:47:59;8.90;;;4.63;;
2522;SDS011;1272;53.332;9.860;2023-12-20T06:50:25;12.50;;;5.70;;
2522;SDS011;1272;53.332;9.860;2023-12-20T06:52:50;20.10;;;7.40;;
2522;SDS011;1272;53.332;9.860;2023-12-20T06:55:17;5.40;;;3.83;;
2522;SDS011;1272;53.332;9.860;2023-12-20T06:57:43;7.27;;;4.00;;
2522;SDS011;1272;53.332;9.860;2023-12-20T07:00:10;6.50;;;4.00;;
2522;SDS011;1272;53.332;9.860;2023-12-20T07:02:36;8.60;;;4.33;;
2522;SDS011;1272;53.332;9.860;2023-12-20T07:05:02;8.47;;;4.07;;
2522;SDS011;1272;53.332;9.860;2023-12-20T07:07:28;7.83;;;4.17;;
2522;SDS011;1272;53.332;9.860;2023-12-20T07:09:54;12.37;;;4.20;;
2522;SDS011;1272;53.332;9.860;2023-12-20T07:12:19;7.60;;;3.90;;
2522;SDS011;1272;53.332;9.860;2023-12-20T07:14:45;9.63;;;4.00;;
2522;SDS011;1272;53.332;9.860;2023-12-20T07:17:11;7.93;;;4.40;;
2522;SDS011;1272;53.332;9.860;2023-12-20T07:19:39;8.20;;;3.97;;
2522;SDS011;1272;53.332;9.860;2023-12-20T07:22:05;4.47;;;3.07;;
2522;SDS011;1272;53.332;9.860;2023-12-20T07:24:32;8.80;;;3.93;;
2522;SDS011;1272;53.332;9.860;2023-12-20T07:26:58;6.60;;;3.90;;
2522;SDS011;1272;53.332;9.860;2023-12-20T07:29:25;12.20;;;3.30;;
2522;SDS011;1272;53.332;9.860;2023-12-20T07:31:50;8.47;;;3.83;;
2522;SDS011;1272;53.332;9.860;2023-12-20T07:34:18;20.00;;;5.57;;
2522;SDS011;1272;53.332;9.860;2023-12-20T07:36:44;15.23;;;4.40;;
2522;SDS011;1272;53.332;9.860;2023-12-20T07:39:10;8.60;;;3.30;;
2522;SDS011;1272;53.332;9.860;2023-12-20T07:41:35;7.70;;;3.10;;
2522;SDS011;1272;53.332;9.860;2023-12-20T07:44:01;6.80;;;3.97;;
2522;SDS011;1272;53.332;9.860;2023-12-20T07:46:27;9.23;;;2.63;;
2522;SDS011;1272;53.332;9.860;2023-12-20T07:48:52;8.30;;;2.93;;
2522;SDS011;1272;53.332;9.860;2023-12-20T07:51:18;9.30;;;3.70;;
2522;SDS011;1272;53.332;9.860;2023-12-20T07:53:46;8.10;;;3.43;;
2522;SDS011;1272;53.332;9.860;2023-12-20T07:56:18;13.83;;;3.60;;
2522;SDS011;1272;53.332;9.860;2023-12-20T07:58:44;4.03;;;3.13;;
2522;SDS011;1272;53.332;9.860;2023-12-20T08:01:11;8.20;;;4.13;;
2522;SDS011;1272;53.332;9.860;2023-12-20T08:03:37;8.33;;;3.13;;
2522;SDS011;1272;53.332;9.860;2023-12-20T08:06:03;8.40;;;3.30;;
2522;SDS011;1272;53.332;9.860;2023-12-20T08:08:29;7.37;;;4.97;;
2522;SDS011;1272;53.332;9.860;2023-12-20T08:10:55;10.43;;;3.63;;
2522;SDS011;1272;53.332;9.860;2023-12-20T08:13:22;10.77;;;3.93;;
2522;SDS011;1272;53.332;9.860;2023-12-20T08:15:51;14.73;;;4.33;;
2522;SDS011;1272;53.332;9.860;2023-12-20T08:18:17;6.63;;;3.33;;
2522;SDS011;1272;53.332;9.860;2023-12-20T08:20:42;8.57;;;3.20;;
2522;SDS011;1272;53.332;9.860;2023-12-20T08:23:08;5.27;;;3.10;;
2522;SDS011;1272;53.332;9.860;2023-12-20T08:25:34;7.77;;;3.80;;
2522;SDS011;1272;53.332;9.860;2023-12-20T08:27:59;7.80;;;3.20;;
2522;SDS011;1272;53.332;9.860;2023-12-20T08:30:28;10.53;;;3.70;;
2522;SDS011;1272;53.332;9.860;2023-12-20T08:32:54;12.00;;;4.50;;
2522;SDS011;1272;53.332;9.860;2023-12-20T08:35:20;7.13;;;3.67;;
2522;SDS011;1272;53.332;9.860;2023-12-20T08:37:46;14.00;;;4.47;;
2522;SDS011;1272;53.332;9.860;2023-12-20T08:40:12;9.53;;;3.33;;
2522;SDS011;1272;53.332;9.860;2023-12-20T08:42:37;4.27;;;3.03;;
2522;SDS011;1272;53.332;9.860;2023-12-20T08:45:03;6.93;;;3.30;;
2522;SDS011;1272;53.332;9.860;2023-12-20T08:47:29;10.20;;;3.60;;
2522;SDS011;1272;53.332;9.860;2023-12-20T08:49:55;13.20;;;3.70;;
2522;SDS011;1272;53.332;9.860;2023-12-20T08:52:25;6.83;;;3.70;;
2522;SDS011;1272;53.332;9.860;2023-12-20T08:54:52;6.07;;;3.67;;
2522;SDS011;1272;53.332;9.860;2023-12-20T08:57:21;7.90;;;3.27;;
2522;SDS011;1272;53.332;9.860;2023-12-20T08:59:48;9.43;;;3.47;;
2522;SDS011;1272;53.332;9.860;2023-12-20T09:02:15;7.80;;;3.33;;
2522;SDS011;1272;53.332;9.860;2023-12-20T09:04:41;4.63;;;3.00;;
2522;SDS011;1272;53.332;9.860;2023-12-20T09:07:20;5.83;;;3.00;;
2522;SDS011;1272;53.332;9.860;2023-12-20T09:09:50;10.27;;;3.47;;
2522;SDS011;1272;53.332;9.860;2023-12-20T09:12:19;8.20;;;2.90;;
2522;SDS011;1272;53.332;9.860;2023-12-20T09:14:46;8.97;;;3.40;;
2522;SDS011;1272;53.332;9.860;2023-12-20T09:17:13;7.07;;;3.97;;
2522;SDS011;1272;53.332;9.860;2023-12-20T09:19:38;7.87;;;3.27;;
2522;SDS011;1272;53.332;9.860;2023-12-20T09:22:04;8.83;;;3.20;;
2522;SDS011;1272;53.332;9.860;2023-12-20T09:24:30;6.80;;;3.20;;
2522;SDS011;1272;53.332;9.860;2023-12-20T09:26:56;7.87;;;3.97;;
2522;SDS011;1272;53.332;9.860;2023-12-20T09:29:22;4.63;;;2.97;;
2522;SDS011;1272;53.332;9.860;2023-12-20T09:31:49;4.17;;;2.70;;
2522;SDS011;1272;53.332;9.860;2023-12-20T09:34:15;2.20;;;1.80;;
2522;SDS011;1272;53.332;9.860;2023-12-20T09:36:44;2.27;;;1.97;;
2522;SDS011;1272;53.332;9.860;2023-12-20T09:39:15;6.03;;;2.23;;
2522;SDS011;1272;53.332;9.860;2023-12-20T09:42:07;1.23;;;1.13;;
2522;SDS011;1272;53.332;9.860;2023-12-20T09:44:33;0.80;;;0.80;;
2522;SDS011;1272;53.332;9.860;2023-12-20T09:47:02;1.00;;;1.00;;
2522;SDS011;1272;53.332;9.860;2023-12-20T09:49:29;1.60;;;1.23;;
2522;SDS011;1272;53.332;9.860;2023-12-20T09:51:55;1.30;;;1.20;;
2522;SDS011;1272;53.332;9.860;2023-12-20T09:54:22;1.70;;;1.60;;
2522;SDS011;1272;53.332;9.860;2023-12-20T09:56:48;1.53;;;1.43;;
2522;SDS011;1272;53.332;9.860;2023-12-20T09:59:15;2.73;;;1.10;;
2522;SDS011;1272;53.332;9.860;2023-12-20T10:01:41;1.03;;;0.93;;
2522;SDS011;1272;53.332;9.860;2023-12-20T10:04:08;0.93;;;0.93;;
2522;SDS011;1272;53.332;9.860;2023-12-20T10:06:43;1.63;;;1.03;;
2522;SDS011;1272;53.332;9.860;2023-12-20T10:09:10;3.23;;;1.20;;
2522;SDS011;1272;53.332;9.860;2023-12-20T10:11:37;0.73;;;0.67;;
2522;SDS011;1272;53.332;9.860;2023-12-20T10:14:03;1.00;;;0.90;;
2522;SDS011;1272;53.332;9.860;2023-12-20T10:16:30;1.13;;;0.80;;
2522;SDS011;1272;53.332;9.860;2023-12-20T10:18:57;2.23;;;1.20;;
2522;SDS011;1272;53.332;9.860;2023-12-20T10:21:23;1.53;;;0.90;;
2522;SDS011;1272;53.332;9.860;2023-12-20T10:23:51;1.27;;;0.80;;
2522;SDS011;1272;53.332;9.860;2023-12-20T10:26:21;1.47;;;0.93;;
2522;SDS011;1272;53.332;9.860;2023-12-20T10:28:59;1.00;;;0.90;;
2522;SDS011;1272;53.332;9.860;2023-12-20T10:31:27;0.60;;;0.60;;
2522;SDS011;1272;53.332;9.860;2023-12-20T10:33:57;0.70;;;0.70;;
2522;SDS011;1272;53.332;9.860;2023-12-20T10:36:26;1.00;;;1.00;;
2522;SDS011;1272;53.332;9.860;2023-12-20T10:38:57;1.63;;;1.03;;
2522;SDS011;1272;53.332;9.860;2023-12-20T10:41:32;2.73;;;1.10;;
2522;SDS011;1272;53.332;9.860;2023-12-20T10:44:00;3.03;;;1.23;;
2522;SDS011;1272;53.332;9.860;2023-12-20T10:46:27;2.20;;;0.70;;
2522;SDS011;1272;53.332;9.860;2023-12-20T10:48:56;1.37;;;0.93;;
2522;SDS011;1272;53.332;9.860;2023-12-20T10:51:22;3.17;;;0.90;;
2522;SDS011;1272;53.332;9.860;2023-12-20T10:53:49;1.33;;;0.90;;
2522;SDS011;1272;53.332;9.860;2023-12-20T10:56:19;0.83;;;0.60;;
2522;SDS011;1272;53.332;9.860;2023-12-20T10:58:45;4.20;;;1.30;;
2522;SDS011;1272;53.332;9.860;2023-12-20T11:01:18;5.20;;;0.93;;
2522;SDS011;1272;53.332;9.860;2023-12-20T11:03:48;1.83;;;0.90;;
2522;SDS011;1272;53.332;9.860;2023-12-20T11:06:21;3.20;;;1.23;;
2522;SDS011;1272;53.332;9.860;2023-12-20T11:09:26;3.23;;;1.10;;
2522;SDS011;1272;53.332;9.860;2023-12-20T11:14:31;1.47;;;1.20;;
2522;SDS011;1272;53.332;9.860;2023-12-20T11:17:09;3.37;;;1.27;;
2522;SDS011;1272;53.332;9.860;2023-12-20T11:19:43;6.03;;;1.00;;
2522;SDS011;1272;53.332;9.860;2023-12-20T11:22:30;1.47;;;1.30;;
2522;SDS011;1272;53.332;9.860;2023-12-20T11:25:02;2.60;;;1.17;;
2522;SDS011;1272;53.332;9.860;2023-12-20T11:27:33;1.23;;;1.13;;
2522;SDS011;1272;53.332;9.860;2023-12-20T11:30:00;8.57;;;1.50;;
2522;SDS011;1272;53.332;9.860;2023-12-20T11:32:31;4.93;;;1.97;;
2522;SDS011;1272;53.332;9.860;2023-12-20T11:35:16;2.47;;;1.17;;
2522;SDS011;1272;53.332;9.860;2023-12-20T11:37:44;4.00;;;1.00;;
2522;SDS011;1272;53.332;9.860;2023-12-20T11:40:15;3.33;;;1.13;;
2522;SDS011;1272;53.332;9.860;2023-12-20T11:42:46;1.63;;;1.00;;
2522;SDS011;1272;53.332;9.860;2023-12-20T11:45:15;3.53;;;1.23;;
2522;SDS011;1272;53.332;9.860;2023-12-20T11:47:43;2.97;;;1.60;;
2522;SDS011;1272;53.332;9.860;2023-12-20T11:50:11;2.00;;;0.93;;
2522;SDS011;1272;53.332;9.860;2023-12-20T11:52:36;1.73;;;1.17;;
2522;SDS011;1272;53.332;9.860;2023-12-20T11:55:02;3.93;;;1.83;;
2522;SDS011;1272;53.332;9.860;2023-12-20T11:57:29;5.30;;;1.00;;
2522;SDS011;1272;53.332;9.860;2023-12-20T11:59:55;4.97;;;1.77;;
2522;SDS011;1272;53.332;9.860;2023-12-20T12:02:21;5.90;;;1.10;;
2522;SDS011;1272;53.332;9.860;2023-12-20T12:04:48;3.07;;;1.80;;
2522;SDS011;1272;53.332;9.860;2023-12-20T12:07:17;4.50;;;1.77;;
2522;SDS011;1272;53.332;9.860;2023-12-20T12:09:45;1.63;;;1.00;;
2522;SDS011;1272;53.332;9.860;2023-12-20T12:12:11;1.33;;;0.97;;
2522;SDS011;1272;53.332;9.860;2023-12-20T12:14:38;2.33;;;1.17;;
2522;SDS011;1272;53.332;9.860;2023-12-20T12:17:09;5.63;;;1.07;;
2522;SDS011;1272;53.332;9.860;2023-12-20T12:19:39;3.50;;;1.70;;
2522;SDS011;1272;53.332;9.860;2023-12-20T12:22:09;4.50;;;1.50;;
2522;SDS011;1272;53.332;9.860;2023-12-20T12:24:42;5.13;;;1.23;;
2522;SDS011;1272;53.332;9.860;2023-12-20T12:27:09;0.77;;;0.77;;
2522;SDS011;1272;53.332;9.860;2023-12-20T12:29:35;0.87;;;0.80;;
2522;SDS011;1272;53.332;9.860;2023-12-20T12:32:04;6.40;;;2.30;;
2522;SDS011;1272;53.332;9.860;2023-12-20T12:34:34;1.87;;;1.13;;
2522;SDS011;1272;53.332;9.860;2023-12-20T12:37:00;1.30;;;0.70;;
2522;SDS011;1272;53.332;9.860;2023-12-20T12:39:26;1.90;;;0.90;;
2522;SDS011;1272;53.332;9.860;2023-12-20T12:41:52;1.53;;;1.43;;
2522;SDS011;1272;53.332;9.860;2023-12-20T12:44:18;3.43;;;0.80;;
2522;SDS011;1272;53.332;9.860;2023-12-20T12:46:45;2.10;;;1.07;;
2522;SDS011;1272;53.332;9.860;2023-12-20T12:49:11;1.50;;;1.00;;
2522;SDS011;1272;53.332;9.860;2023-12-20T12:51:38;1.07;;;0.97;;
2522;SDS011;1272;53.332;9.860;2023-12-20T12:54:03;5.27;;;1.47;;
2522;SDS011;1272;53.332;9.860;2023-12-20T12:56:29;1.27;;;1.17;;
2522;SDS011;1272;53.332;9.860;2023-12-20T12:58:55;3.90;;;1.10;;
2522;SDS011;1272;53.332;9.860;2023-12-20T13:01:21;1.30;;;1.00;;
2522;SDS011;1272;53.332;9.860;2023-12-20T13:03:47;1.33;;;1.00;;
2522;SDS011;1272;53.332;9.860;2023-12-20T13:06:12;1.03;;;1.03;;
2522;SDS011;1272;53.332;9.860;2023-12-20T13:08:38;3.30;;;1.37;;
2522;SDS011;1272;53.332;9.860;2023-12-20T13:11:04;5.43;;;1.70;;
2522;SDS011;1272;53.332;9.860;2023-12-20T13:13:30;3.43;;;1.63;;
2522;SDS011;1272;53.332;9.860;2023-12-20T13:15:56;7.03;;;2.00;;
2522;SDS011;1272;53.332;9.860;2023-12-20T13:18:22;2.70;;;1.50;;
2522;SDS011;1272;53.332;9.860;2023-12-20T13:20:48;3.00;;;1.37;;
2522;SDS011;1272;53.332;9.860;2023-12-20T13:23:14;12.57;;;4.57;;
2522;SDS011;1272;53.332;9.860;2023-12-20T13:25:41;4.63;;;2.40;;
2522;SDS011;1272;53.332;9.860;2023-12-20T13:28:07;5.83;;;2.50;;
2522;SDS011;1272;53.332;9.860;2023-12-20T13:30:33;11.30;;;2.63;;
2522;SDS011;1272;53.332;9.860;2023-12-20T13:32:59;3.90;;;1.40;;
2522;SDS011;1272;53.332;9.860;2023-12-20T13:35:25;5.93;;;1.83;;
2522;SDS011;1272;53.332;9.860;2023-12-20T13:37:50;5.33;;;2.23;;
2522;SDS011;1272;53.332;9.860;2023-12-20T13:40:16;8.87;;;2.50;;
2522;SDS011;1272;53.332;9.860;2023-12-20T13:42:43;3.40;;;1.37;;
2522;SDS011;1272;53.332;9.860;2023-12-20T13:45:08;6.37;;;2.67;;
2522;SDS011;1272;53.332;9.860;2023-12-20T13:47:34;16.67;;;2.73;;
2522;SDS011;1272;53.332;9.860;2023-12-20T13:50:00;8.00;;;2.27;;
2522;SDS011;1272;53.332;9.860;2023-12-20T13:52:27;15.53;;;3.60;;
2522;SDS011;1272;53.332;9.860;2023-12-20T13:54:52;6.40;;;2.50;;
2522;SDS011;1272;53.332;9.860;2023-12-20T13:57:18;11.50;;;3.17;;
2522;SDS011;1272;53.332;9.860;2023-12-20T13:59:43;14.63;;;2.83;;
2522;SDS011;1272;53.332;9.860;2023-12-20T14:02:10;4.00;;;2.90;;
2522;SDS011;1272;53.332;9.860;2023-12-20T14:04:35;11.07;;;2.37;;
2522;SDS011;1272;53.332;9.860;2023-12-20T14:07:01;4.97;;;3.10;;
2522;SDS011;1272;53.332;9.860;2023-12-20T14:09:27;7.63;;;2.53;;
2522;SDS011;1272;53.332;9.860;2023-12-20T14:11:53;10.80;;;3.47;;
2522;SDS011;1272;53.332;9.860;2023-12-20T14:14:19;3.00;;;1.87;;
2522;SDS011;1272;53.332;9.860;2023-12-20T14:16:45;8.03;;;2.10;;
2522;SDS011;1272;53.332;9.860;2023-12-20T14:19:11;8.33;;;2.77;;
2522;SDS011;1272;53.332;9.860;2023-12-20T14:21:37;3.90;;;3.10;;
2522;SDS011;1272;53.332;9.860;2023-12-20T14:24:03;5.50;;;2.97;;
2522;SDS011;1272;53.332;9.860;2023-12-20T14:26:29;6.47;;;2.60;;
2522;SDS011;1272;53.332;9.860;2023-12-20T14:28:56;7.53;;;2.37;;
2522;SDS011;1272;53.332;9.860;2023-12-20T14:31:21;9.60;;;2.60;;
2522;SDS011;1272;53.332;9.860;2023-12-20T14:33:49;6.73;;;2.27;;
2522;SDS011;1272;53.332;9.860;2023-12-20T14:36:16;7.17;;;2.50;;
2522;SDS011;1272;53.332;9.860;2023-12-20T14:38:43;7.80;;;2.70;;
2522;SDS011;1272;53.332;9.860;2023-12-20T14:41:09;6.30;;;2.87;;
2522;SDS011;1272;53.332;9.860;2023-12-20T14:43:34;7.67;;;2.27;;
2522;SDS011;1272;53.332;9.860;2023-12-20T14:46:00;8.13;;;2.67;;
2522;SDS011;1272;53.332;9.860;2023-12-20T14:48:26;4.90;;;3.90;;
2522;SDS011;1272;53.332;9.860;2023-12-20T14:50:55;6.60;;;1.87;;
2522;SDS011;1272;53.332;9.860;2023-12-20T14:53:20;21.80;;;2.80;;
2522;SDS011;1272;53.332;9.860;2023-12-20T14:55:46;3.13;;;1.93;;
2522;SDS011;1272;53.332;9.860;2023-12-20T14:58:12;5.60;;;1.67;;
2522;SDS011;1272;53.332;9.860;2023-12-20T15:00:39;7.10;;;3.10;;
2522;SDS011;1272;53.332;9.860;2023-12-20T15:03:05;10.57;;;2.60;;
2522;SDS011;1272;53.332;9.860;2023-12-20T15:05:31;7.63;;;2.30;;
2522;SDS011;1272;53.332;9.860;2023-12-20T15:07:57;3.97;;;2.10;;
2522;SDS011;1272;53.332;9.860;2023-12-20T15:10:23;2.50;;;1.93;;
2522;SDS011;1272;53.332;9.860;2023-12-20T15:12:48;8.37;;;2.30;;
2522;SDS011;1272;53.332;9.860;2023-12-20T15:15:14;6.30;;;2.40;;